createdAt,value
2022-10-20T00:01:20.352Z,27.33
2022-10-20T00:03:48.769Z,26.00
2022-10-20T00:06:27.203Z,32.35
2022-10-20T00:08:56.646Z,27.17
2022-10-20T00:11:25.044Z,25.38
2022-10-20T00:13:54.398Z,36.67
2022-10-20T00:18:50.709Z,23.80
2022-10-20T00:21:24.828Z,25.38
2022-10-20T00:23:52.857Z,21.70
2022-10-20T00:26:24.016Z,25.45
2022-10-20T00:28:52.824Z,28.23
2022-10-20T00:31:22.725Z,27.63
2022-10-20T00:33:50.111Z,29.63
2022-10-20T00:36:21.420Z,26.58
2022-10-20T00:38:49.434Z,28.17
2022-10-20T00:41:20.975Z,28.67
2022-10-20T00:43:56.277Z,33.38
2022-10-20T00:46:40.595Z,20.50
2022-10-20T00:49:23.016Z,24.88
2022-10-20T00:51:52.285Z,22.63
2022-10-20T00:54:25.100Z,28.00
2022-10-20T00:56:55.343Z,34.42
2022-10-20T00:59:30.991Z,24.92
2022-10-20T01:02:00.466Z,20.88
2022-10-20T01:04:30.238Z,34.38
2022-10-20T01:06:58.584Z,26.35
2022-10-20T01:09:26.154Z,27.85
2022-10-20T01:12:42.672Z,25.67
2022-10-20T01:15:45.158Z,24.83
2022-10-20T01:18:53.862Z,27.65
2022-10-20T01:22:02.679Z,30.25
2022-10-20T01:24:49.899Z,21.70
2022-10-20T01:27:25.794Z,24.83
2022-10-20T01:30:12.690Z,31.25
2022-10-20T01:32:57.872Z,31.30
2022-10-20T01:35:42.732Z,27.02
2022-10-20T01:38:15.480Z,25.80
2022-10-20T01:41:32.256Z,22.90
2022-10-20T01:44:06.122Z,31.77
2022-10-20T01:46:35.194Z,28.85
2022-10-20T01:49:04.454Z,23.33
2022-10-20T01:51:32.461Z,43.05
2022-10-20T01:53:59.829Z,30.90
2022-10-20T01:56:36.971Z,27.13
2022-10-20T01:59:09.735Z,32.03
2022-10-20T02:01:58.566Z,24.88
2022-10-20T02:05:10.703Z,28.83
2022-10-20T02:07:38.773Z,28.25
2022-10-20T02:10:17.801Z,27.60
2022-10-20T02:12:49.793Z,24.73
2022-10-20T02:15:24.002Z,22.90
2022-10-20T02:17:59.559Z,32.97
2022-10-20T02:20:28.893Z,26.77
2022-10-20T02:25:27.502Z,31.70
2022-10-20T02:27:56.769Z,32.50
2022-10-20T02:32:52.290Z,36.53
2022-10-20T02:35:30.310Z,32.28
2022-10-20T02:37:58.469Z,24.88
2022-10-20T02:40:25.997Z,30.77
2022-10-20T02:42:53.177Z,31.75
2022-10-20T02:45:20.539Z,28.98
2022-10-20T02:47:47.783Z,28.35
2022-10-20T02:50:16.428Z,32.30
2022-10-20T02:52:43.673Z,25.40
2022-10-20T02:55:10.894Z,28.67
2022-10-20T02:57:38.404Z,29.98
2022-10-20T03:00:07.315Z,35.33
2022-10-20T03:02:34.418Z,32.15
2022-10-20T03:05:01.649Z,28.60
2022-10-20T03:07:28.775Z,27.83
2022-10-20T03:09:55.951Z,32.63
2022-10-20T03:12:22.997Z,39.72
2022-10-20T03:14:50.262Z,29.98
2022-10-20T03:17:17.351Z,33.50
2022-10-20T03:19:44.505Z,28.75
2022-10-20T03:22:11.603Z,28.40
2022-10-20T03:24:38.747Z,38.35
2022-10-20T03:27:05.954Z,36.20
2022-10-20T03:29:33.266Z,34.38
2022-10-20T03:32:00.353Z,28.00
2022-10-20T03:34:27.442Z,35.38
2022-10-20T03:36:54.588Z,35.85
2022-10-20T03:39:21.712Z,29.95
2022-10-20T03:41:49.031Z,36.60
2022-10-20T03:44:16.085Z,50.45
2022-10-20T03:46:43.302Z,34.25
2022-10-20T03:49:10.556Z,42.95
2022-10-20T03:51:37.837Z,34.67
2022-10-20T03:54:04.982Z,45.80
2022-10-20T03:56:32.195Z,34.15
2022-10-20T03:58:59.376Z,28.50
2022-10-20T04:01:31.454Z,37.58
2022-10-20T04:03:58.628Z,37.55
2022-10-20T04:06:25.974Z,38.10
2022-10-20T04:08:53.142Z,34.28
2022-10-20T04:11:20.259Z,37.35
2022-10-20T04:13:47.357Z,48.72
2022-10-20T04:16:14.479Z,32.83
2022-10-20T04:18:41.735Z,58.30
2022-10-20T04:21:09.000Z,46.63
2022-10-20T04:23:36.238Z,39.53
2022-10-20T04:26:15.541Z,62.95
2022-10-20T04:28:43.600Z,54.08
2022-10-20T04:31:11.427Z,52.13
2022-10-20T04:33:38.806Z,42.45
2022-10-20T04:36:11.270Z,53.97
2022-10-20T04:38:38.560Z,50.85
2022-10-20T04:41:05.986Z,50.30
2022-10-20T04:43:33.851Z,39.78
2022-10-20T04:46:06.983Z,53.30
2022-10-20T04:48:37.491Z,48.60
2022-10-20T04:51:08.901Z,49.40
2022-10-20T04:53:36.545Z,43.55
2022-10-20T04:56:07.170Z,49.97
2022-10-20T04:58:34.979Z,44.38
2022-10-20T05:01:09.729Z,48.03
2022-10-20T05:03:37.125Z,42.95
2022-10-20T05:06:13.985Z,40.58
2022-10-20T05:08:43.706Z,47.08
2022-10-20T05:11:11.999Z,44.55
2022-10-20T05:13:39.343Z,49.05
2022-10-20T05:16:07.186Z,45.05
2022-10-20T05:18:34.890Z,42.90
2022-10-20T05:21:12.418Z,46.42
2022-10-20T05:23:41.039Z,50.35
2022-10-20T05:26:12.712Z,57.15
2022-10-20T05:28:44.394Z,48.92
2022-10-20T05:31:11.974Z,55.30
2022-10-20T05:33:42.894Z,54.47
2022-10-20T05:36:11.507Z,49.03
2022-10-20T05:38:40.454Z,39.95
2022-10-20T05:41:12.525Z,41.80
2022-10-20T05:43:40.117Z,36.45
2022-10-20T05:46:08.720Z,50.83
2022-10-20T05:48:39.407Z,42.17
2022-10-20T05:51:24.280Z,36.15
2022-10-20T05:53:54.071Z,42.40
2022-10-20T05:56:22.497Z,55.35
2022-10-20T05:58:49.760Z,45.78
2022-10-20T06:01:24.317Z,36.53
2022-10-20T06:03:58.023Z,52.15
2022-10-20T06:06:29.104Z,60.67
2022-10-20T06:08:58.969Z,57.42
2022-10-20T06:11:26.887Z,56.70
2022-10-20T06:13:55.500Z,57.22
2022-10-20T06:16:25.350Z,66.80
2022-10-20T06:18:53.118Z,60.70
2022-10-20T06:21:23.881Z,64.20
2022-10-20T06:23:51.586Z,50.20
2022-10-20T06:26:24.994Z,53.38
2022-10-20T06:29:02.712Z,49.10
2022-10-20T06:31:43.920Z,38.53
2022-10-20T06:34:19.636Z,41.70
2022-10-20T06:36:48.094Z,23.73
2022-10-20T06:39:20.962Z,32.83
2022-10-20T06:41:53.832Z,36.53
2022-10-20T06:44:24.323Z,37.70
2022-10-20T06:46:51.760Z,32.75
2022-10-20T06:49:19.606Z,35.08
2022-10-20T06:51:46.811Z,35.10
2022-10-20T06:54:14.291Z,30.05
2022-10-20T06:56:41.385Z,33.33
2022-10-20T06:59:08.611Z,30.35
2022-10-20T07:01:38.170Z,33.03
2022-10-20T07:04:12.818Z,31.13
2022-10-20T07:06:43.280Z,29.80
2022-10-20T07:09:16.771Z,31.38
2022-10-20T07:11:44.547Z,27.90
2022-10-20T07:14:13.290Z,34.28
2022-10-20T07:16:40.647Z,29.67
2022-10-20T07:19:07.893Z,26.45
2022-10-20T07:21:37.398Z,29.58
2022-10-20T07:24:07.330Z,26.85
2022-10-20T07:26:41.110Z,29.48
2022-10-20T07:29:09.894Z,30.05
2022-10-20T07:31:40.742Z,28.02
2022-10-20T07:34:27.485Z,28.35
2022-10-20T07:36:56.690Z,30.30
2022-10-20T07:39:24.456Z,33.20
2022-10-20T07:41:51.666Z,31.23
2022-10-20T07:44:19.018Z,32.45
2022-10-20T07:46:46.170Z,31.95
2022-10-20T07:52:00.387Z,28.77
2022-10-20T07:54:27.495Z,33.17
2022-10-20T07:56:54.714Z,37.03
2022-10-20T07:59:21.938Z,29.88
2022-10-20T08:01:49.260Z,30.88
2022-10-20T08:04:16.490Z,27.73
2022-10-20T08:06:43.838Z,28.75
2022-10-20T08:09:10.898Z,28.35
2022-10-20T08:11:38.346Z,31.17
2022-10-20T08:14:05.554Z,34.78
2022-10-20T08:16:40.102Z,37.03
2022-10-20T08:21:52.540Z,41.25
2022-10-20T08:24:20.044Z,35.78
2022-10-20T08:26:47.277Z,25.10
2022-10-20T08:29:14.449Z,34.33
2022-10-20T08:31:44.021Z,20.88
2022-10-20T08:34:11.491Z,22.60
2022-10-20T08:36:38.821Z,27.90
2022-10-20T08:39:06.529Z,22.10
2022-10-20T08:42:06.234Z,28.67
2022-10-20T08:44:34.153Z,46.20
2022-10-20T08:47:13.036Z,26.15
2022-10-20T08:49:40.318Z,29.88
2022-10-20T08:52:14.724Z,29.83
2022-10-20T08:54:42.463Z,27.13
2022-10-20T08:57:36.651Z,21.45
2022-10-20T09:00:22.095Z,23.65
2022-10-20T09:02:50.621Z,38.75
2022-10-20T09:05:26.130Z,23.92
2022-10-20T09:07:54.340Z,25.00
2022-10-20T09:10:46.966Z,20.20
2022-10-20T09:13:28.270Z,19.92
2022-10-20T09:16:07.659Z,32.67
2022-10-20T09:18:34.972Z,20.65
2022-10-20T09:21:11.104Z,20.50
2022-10-20T09:23:42.774Z,20.73
2022-10-20T09:26:24.768Z,20.27
2022-10-20T09:29:21.033Z,25.92
2022-10-20T09:31:52.764Z,25.77
2022-10-20T09:34:22.544Z,16.83
2022-10-20T09:37:15.550Z,27.50
2022-10-20T09:39:54.165Z,25.67
2022-10-20T09:42:38.201Z,21.13
2022-10-20T09:45:31.213Z,17.48
2022-10-20T09:48:20.625Z,24.00
2022-10-20T09:50:55.492Z,21.40
2022-10-20T09:53:44.866Z,18.48
2022-10-20T09:56:12.053Z,24.38
2022-10-20T09:58:41.511Z,18.85
2022-10-20T10:01:11.673Z,21.50
2022-10-20T10:03:44.404Z,14.85
2022-10-20T10:06:42.672Z,22.00
2022-10-20T10:09:33.843Z,19.90
2022-10-20T10:12:17.501Z,21.67
2022-10-20T10:15:36.231Z,15.23
2022-10-20T10:18:22.293Z,21.77
2022-10-20T10:21:08.683Z,19.85
2022-10-20T10:23:51.045Z,22.55
2022-10-20T10:26:51.400Z,21.27
2022-10-20T10:29:28.294Z,20.90
2022-10-20T10:32:24.689Z,19.48
2022-10-20T10:35:07.493Z,20.83
2022-10-20T10:37:36.507Z,21.65
2022-10-20T10:40:21.806Z,17.30
2022-10-20T10:43:24.271Z,19.48
2022-10-20T10:46:00.114Z,21.08
2022-10-20T10:49:06.032Z,18.95
2022-10-20T10:52:17.956Z,13.30
2022-10-20T10:55:43.673Z,18.70
2022-10-20T10:58:22.144Z,16.98
2022-10-20T11:01:07.328Z,16.00
2022-10-20T11:04:33.616Z,24.40
2022-10-20T11:07:39.184Z,19.88
2022-10-20T11:10:17.567Z,23.70
2022-10-20T11:12:53.824Z,19.80
2022-10-20T11:16:15.123Z,12.95
2022-10-20T11:18:51.268Z,27.60
2022-10-20T11:21:32.538Z,14.50
2022-10-20T11:24:16.004Z,15.82
2022-10-20T11:26:51.660Z,15.43
2022-10-20T11:29:44.652Z,17.17
2022-10-20T11:32:17.977Z,21.55
2022-10-20T11:35:31.359Z,17.50
2022-10-20T11:38:23.257Z,22.77
2022-10-20T11:41:18.744Z,22.90
2022-10-20T11:44:06.404Z,12.18
2022-10-20T11:46:40.591Z,14.23
2022-10-20T11:49:11.911Z,16.33
2022-10-20T11:52:00.816Z,12.23
2022-10-20T11:55:07.676Z,16.92
2022-10-20T11:58:22.750Z,12.20
2022-10-20T12:01:01.573Z,13.23
2022-10-20T12:04:06.876Z,14.00
2022-10-20T12:06:44.523Z,14.70
2022-10-20T12:09:52.935Z,17.27
2022-10-20T12:13:05.514Z,16.88
2022-10-20T12:15:32.921Z,11.00
2022-10-20T12:18:34.788Z,15.95
2022-10-20T12:21:05.467Z,13.93
2022-10-20T12:23:45.004Z,18.33
2022-10-20T12:26:33.505Z,20.15
2022-10-20T12:29:30.957Z,9.55
2022-10-20T12:32:23.826Z,13.65
2022-10-20T12:34:55.493Z,14.70
2022-10-20T12:37:35.964Z,21.95
2022-10-20T12:40:06.505Z,14.05
2022-10-20T12:42:39.608Z,14.93
2022-10-20T12:45:19.630Z,17.98
2022-10-20T12:48:08.892Z,13.00
2022-10-20T12:50:44.671Z,12.35
2022-10-20T12:53:13.763Z,17.08
2022-10-20T12:55:42.420Z,12.38
2022-10-20T12:58:12.765Z,10.43
2022-10-20T13:01:08.606Z,21.33
2022-10-20T13:03:48.472Z,11.63
2022-10-20T13:06:29.608Z,10.43
2022-10-20T13:09:03.263Z,8.57
2022-10-20T13:11:40.412Z,14.13
2022-10-20T13:14:29.788Z,10.43
2022-10-20T13:17:08.957Z,10.55
2022-10-20T13:22:51.013Z,7.88
2022-10-20T13:25:35.729Z,7.47
2022-10-20T13:28:25.105Z,12.13
2022-10-20T13:30:52.144Z,7.05
2022-10-20T13:34:04.300Z,7.65
2022-10-20T13:36:41.849Z,11.50
2022-10-20T13:40:10.029Z,13.98
2022-10-20T13:43:05.807Z,16.40
2022-10-20T13:46:06.059Z,10.85
2022-10-20T13:49:01.339Z,8.23
2022-10-20T13:51:33.103Z,18.13
2022-10-20T13:54:03.919Z,10.77
2022-10-20T13:56:45.249Z,23.70
2022-10-20T13:59:18.274Z,11.38
2022-10-20T14:01:50.095Z,14.55
2022-10-20T14:04:37.561Z,10.38
2022-10-20T14:07:08.112Z,9.23
2022-10-20T14:09:35.583Z,12.40
2022-10-20T14:12:07.605Z,14.25
2022-10-20T14:14:34.979Z,18.15
2022-10-20T14:17:07.629Z,10.52
2022-10-20T14:19:35.389Z,9.55
2022-10-20T14:22:24.804Z,20.77
2022-10-20T14:24:56.969Z,12.65
2022-10-20T14:27:31.683Z,13.70
2022-10-20T14:30:02.432Z,12.60
2022-10-20T14:32:39.884Z,12.73
2022-10-20T14:35:26.438Z,9.82
2022-10-20T14:38:15.380Z,9.70
2022-10-20T14:40:56.406Z,9.77
2022-10-20T14:43:38.450Z,7.65
2022-10-20T14:46:09.432Z,14.63
2022-10-20T14:48:50.162Z,9.20
2022-10-20T14:51:44.321Z,14.95
2022-10-20T14:54:20.602Z,20.73
2022-10-20T14:56:50.802Z,16.33
2022-10-20T14:59:21.516Z,10.80
2022-10-20T15:02:19.582Z,19.55
2022-10-20T15:04:51.458Z,18.37
2022-10-20T15:07:34.337Z,13.40
2022-10-20T15:10:30.222Z,9.90
2022-10-20T15:12:57.756Z,8.82
2022-10-20T15:15:36.986Z,17.58
2022-10-20T15:20:33.794Z,14.63
2022-10-20T15:23:04.307Z,14.65
2022-10-20T15:26:02.287Z,11.80
2022-10-20T15:28:47.056Z,15.65
2022-10-20T15:31:27.113Z,20.40
2022-10-20T15:33:56.398Z,13.98
2022-10-20T15:39:06.344Z,14.27
2022-10-20T15:41:35.492Z,15.57
2022-10-20T15:46:38.501Z,12.85
2022-10-20T15:49:05.907Z,17.98
2022-10-20T15:51:35.674Z,15.50
2022-10-20T15:54:03.365Z,17.25
2022-10-20T15:56:31.496Z,26.05
2022-10-20T15:58:58.739Z,19.05
2022-10-20T16:01:27.907Z,26.38
2022-10-20T16:06:23.047Z,15.48
2022-10-20T16:08:51.407Z,24.00
2022-10-20T16:11:21.147Z,20.30
2022-10-20T16:13:50.117Z,18.60
2022-10-20T16:16:20.544Z,17.05
2022-10-20T16:18:48.024Z,26.52
2022-10-20T16:21:16.486Z,13.15
2022-10-20T16:23:45.138Z,18.73
2022-10-20T16:26:14.498Z,20.90
2022-10-20T16:31:13.497Z,16.10
2022-10-20T16:33:41.916Z,13.95
2022-10-20T16:36:14.273Z,17.05
2022-10-20T16:38:42.767Z,11.48
2022-10-20T16:41:15.061Z,14.75
2022-10-20T16:43:45.040Z,15.30
2022-10-20T16:46:14.574Z,19.25
2022-10-20T16:48:43.915Z,18.63
2022-10-20T16:51:14.628Z,28.15
2022-10-20T16:53:43.031Z,28.17
2022-10-20T16:56:13.051Z,21.70
2022-10-20T16:58:42.630Z,39.00
2022-10-20T17:01:13.343Z,34.35
2022-10-20T17:03:50.085Z,29.92
2022-10-20T17:06:22.548Z,28.08
2022-10-20T17:08:50.236Z,36.88
2022-10-20T17:11:26.629Z,30.58
2022-10-20T17:13:54.553Z,32.55
2022-10-20T17:16:29.057Z,27.65
2022-10-20T17:18:58.191Z,21.33
2022-10-20T17:23:53.891Z,34.00
2022-10-20T17:26:25.249Z,29.05
2022-10-20T17:29:00.589Z,27.65
2022-10-20T17:31:28.871Z,26.95
2022-10-20T17:33:58.351Z,27.85
2022-10-20T17:36:26.607Z,38.90
2022-10-20T17:39:07.847Z,43.20
2022-10-20T17:41:35.609Z,38.90
2022-10-20T17:44:06.249Z,53.65
2022-10-20T17:46:33.496Z,38.05
2022-10-20T17:49:01.560Z,32.95
2022-10-20T17:51:33.385Z,64.10
2022-10-20T17:54:03.591Z,43.53
2022-10-20T17:56:35.032Z,42.47
2022-10-20T17:59:04.418Z,35.10
2022-10-20T18:01:35.491Z,40.90
2022-10-20T18:04:09.831Z,38.85
2022-10-20T18:06:38.178Z,34.03
2022-10-20T18:09:15.312Z,31.63
2022-10-20T18:11:50.703Z,49.35
2022-10-20T18:14:18.010Z,35.35
2022-10-20T18:16:45.784Z,51.45
2022-10-20T18:19:18.532Z,77.07
2022-10-20T18:21:46.773Z,63.67
2022-10-20T18:24:16.661Z,66.68
2022-10-20T18:26:44.977Z,32.47
2022-10-20T18:29:15.614Z,41.88
2022-10-20T18:31:44.916Z,32.10
2022-10-20T18:34:16.672Z,31.08
2022-10-20T18:36:45.978Z,36.72
2022-10-20T18:39:14.804Z,40.22
2022-10-20T18:41:44.869Z,42.53
2022-10-20T18:44:18.585Z,48.28
2022-10-20T18:46:47.230Z,46.88
2022-10-20T18:49:19.077Z,41.58
2022-10-20T18:51:47.526Z,43.17
2022-10-20T18:54:15.467Z,40.13
2022-10-20T18:56:42.871Z,40.20
2022-10-20T18:59:13.505Z,33.03
2022-10-20T19:01:41.478Z,26.25
2022-10-20T19:04:10.924Z,36.83
2022-10-20T19:09:16.464Z,48.95
2022-10-20T19:11:45.395Z,40.78
2022-10-20T19:14:13.916Z,43.40
2022-10-20T19:16:44.245Z,35.90
2022-10-20T19:19:11.645Z,39.28
2022-10-20T19:21:39.103Z,55.05
2022-10-20T19:24:13.091Z,39.63
2022-10-20T19:26:52.530Z,51.10
2022-10-20T19:32:01.013Z,35.00
2022-10-20T19:34:39.490Z,34.30
2022-10-20T19:37:08.062Z,31.67
2022-10-20T19:39:41.458Z,30.58
2022-10-20T19:42:10.644Z,35.60
2022-10-20T19:44:38.798Z,33.78
2022-10-20T19:47:07.486Z,34.40
2022-10-20T19:49:35.375Z,31.77
2022-10-20T19:52:03.480Z,31.25
2022-10-20T19:54:30.733Z,40.22
2022-10-20T19:56:58.065Z,33.05
2022-10-20T19:59:25.621Z,29.17
2022-10-20T20:01:52.906Z,37.13
2022-10-20T20:04:20.570Z,38.38
2022-10-20T20:06:47.945Z,31.02
2022-10-20T20:09:15.245Z,36.42
2022-10-20T20:11:43.540Z,33.88
2022-10-20T20:14:17.668Z,39.33
2022-10-20T20:16:46.203Z,34.05
2022-10-20T20:19:16.269Z,28.77
2022-10-20T20:24:13.547Z,34.17
2022-10-20T20:26:41.147Z,33.60
2022-10-20T20:29:09.059Z,32.58
2022-10-20T20:31:36.497Z,37.13
2022-10-20T20:34:03.717Z,49.03
2022-10-20T20:36:31.015Z,101.03
2022-10-20T20:38:59.082Z,81.53
2022-10-20T20:41:29.493Z,38.63
2022-10-20T20:43:57.025Z,36.45
2022-10-20T20:46:28.496Z,77.43
2022-10-20T20:48:56.817Z,136.98
2022-10-20T20:51:25.648Z,163.88
2022-10-20T20:53:52.995Z,140.27
2022-10-20T20:56:23.111Z,118.93
2022-10-20T20:58:55.417Z,88.40
2022-10-20T21:01:26.776Z,79.65
2022-10-20T21:03:56.646Z,66.90
2022-10-20T21:06:33.337Z,69.18
2022-10-20T21:09:07.825Z,59.25
2022-10-20T21:11:35.340Z,53.53
2022-10-20T21:14:04.338Z,43.33
2022-10-20T21:16:35.071Z,41.35
2022-10-20T21:19:10.164Z,32.95
2022-10-20T21:21:43.273Z,35.03
2022-10-20T21:24:12.069Z,32.70
2022-10-20T21:26:39.612Z,45.92
2022-10-20T21:29:06.943Z,31.73
2022-10-20T21:31:35.109Z,31.80
2022-10-20T21:34:04.900Z,32.75
2022-10-20T21:36:34.793Z,26.48
2022-10-20T21:39:07.172Z,23.42
2022-10-20T21:41:36.024Z,26.00
2022-10-20T21:44:06.804Z,19.80
2022-10-20T21:46:36.438Z,26.60
2022-10-20T21:49:07.192Z,22.15
2022-10-20T21:51:37.799Z,26.20
2022-10-20T21:54:09.939Z,24.55
2022-10-20T21:56:40.574Z,25.20
2022-10-20T21:59:15.223Z,27.15
2022-10-20T22:01:42.456Z,30.38
2022-10-20T22:04:09.705Z,21.67
2022-10-20T22:06:37.948Z,23.80
2022-10-20T22:09:05.989Z,23.20
2022-10-20T22:11:38.614Z,30.15
2022-10-20T22:14:06.749Z,26.35
2022-10-20T22:16:37.375Z,22.73
2022-10-20T22:19:12.725Z,30.02
2022-10-20T22:21:43.692Z,23.27
2022-10-20T22:24:11.919Z,21.15
2022-10-20T22:26:39.397Z,23.88
2022-10-20T22:29:09.066Z,17.75
2022-10-20T22:31:38.612Z,18.80
2022-10-20T22:34:06.874Z,18.25
2022-10-20T22:36:34.459Z,16.77
2022-10-20T22:39:01.808Z,14.02
2022-10-20T22:41:28.955Z,14.23
2022-10-20T22:43:57.482Z,14.68
2022-10-20T22:46:25.216Z,26.50
2022-10-20T22:48:52.550Z,15.35
2022-10-20T22:51:19.753Z,16.30
2022-10-20T22:53:47.029Z,20.02
2022-10-20T22:56:18.866Z,20.88
2022-10-20T22:58:47.421Z,25.63
2022-10-20T23:01:18.434Z,22.03
2022-10-20T23:03:46.295Z,25.05
2022-10-20T23:06:24.092Z,29.63
2022-10-20T23:08:54.797Z,22.42
2022-10-20T23:11:22.960Z,17.02
2022-10-20T23:13:50.806Z,21.98
2022-10-20T23:16:18.337Z,14.85
2022-10-20T23:18:45.776Z,17.08
2022-10-20T23:21:14.347Z,17.98
2022-10-20T23:23:42.375Z,22.80
2022-10-20T23:26:10.606Z,19.80
2022-10-20T23:28:38.493Z,23.33
2022-10-20T23:31:08.930Z,13.23
2022-10-20T23:33:41.392Z,19.00
2022-10-20T23:36:09.808Z,15.60
2022-10-20T23:38:37.373Z,12.68
2022-10-20T23:41:05.252Z,8.63
2022-10-20T23:43:33.504Z,9.63
2022-10-20T23:46:00.869Z,16.15
2022-10-20T23:48:28.316Z,11.43
2022-10-20T23:50:55.565Z,13.45
2022-10-20T23:53:23.944Z,21.33
2022-10-20T23:55:51.260Z,17.00
2022-10-20T23:58:21.547Z,21.23
